createdAt,value
2023-02-18T00:00:21.470Z,81.90
2023-02-18T00:02:50.322Z,82.02
2023-02-18T00:05:20.279Z,82.59
2023-02-18T00:07:47.560Z,81.92
2023-02-18T00:10:15.864Z,81.89
2023-02-18T00:12:43.483Z,81.93
2023-02-18T00:15:11.225Z,82.84
2023-02-18T00:17:38.531Z,82.36
2023-02-18T00:20:06.896Z,82.07
2023-02-18T00:22:36.039Z,82.89
2023-02-18T00:25:03.662Z,83.54
2023-02-18T00:27:30.951Z,83.42
2023-02-18T00:29:59.213Z,83.46
2023-02-18T00:32:26.488Z,83.78
2023-02-18T00:34:53.890Z,83.60
2023-02-18T00:37:21.165Z,83.63
2023-02-18T00:39:49.756Z,82.83
2023-02-18T00:42:17.023Z,83.04
2023-02-18T00:44:44.379Z,83.35
2023-02-18T00:47:11.772Z,82.65
2023-02-18T00:49:39.214Z,82.16
2023-02-18T00:52:06.587Z,82.58
2023-02-18T00:54:33.850Z,83.52
2023-02-18T00:57:02.443Z,83.36
2023-02-18T00:59:29.721Z,83.63
2023-02-18T01:01:57.066Z,82.78
2023-02-18T01:04:24.432Z,83.08
2023-02-18T01:06:52.489Z,82.91
2023-02-18T01:09:19.752Z,82.34
2023-02-18T01:11:47.066Z,80.96
2023-02-18T01:14:15.672Z,81.22
2023-02-18T01:16:42.972Z,81.96
2023-02-18T01:19:10.275Z,81.15
2023-02-18T01:21:37.547Z,80.56
2023-02-18T01:24:05.200Z,80.58
2023-02-18T01:26:32.509Z,80.41
2023-02-18T01:28:59.795Z,80.04
2023-02-18T01:31:28.605Z,80.59
2023-02-18T01:33:55.980Z,80.59
2023-02-18T01:36:23.276Z,80.62
2023-02-18T01:38:50.610Z,80.88
2023-02-18T01:41:17.895Z,80.07
2023-02-18T01:43:45.149Z,80.11
2023-02-18T01:46:17.604Z,80.39
2023-02-18T01:48:48.009Z,80.44
2023-02-18T01:51:17.336Z,80.19
2023-02-18T01:53:48.191Z,80.53
2023-02-18T01:56:17.399Z,80.29
2023-02-18T01:58:44.758Z,80.32
2023-02-18T02:01:12.171Z,80.48
2023-02-18T02:03:39.761Z,81.24
2023-02-18T02:06:13.495Z,80.76
2023-02-18T02:08:40.850Z,81.04
2023-02-18T02:11:11.954Z,81.21
2023-02-18T02:13:49.994Z,82.03
2023-02-18T02:16:22.690Z,81.79
2023-02-18T02:18:57.021Z,81.83
2023-02-18T02:21:39.232Z,81.76
2023-02-18T02:24:30.286Z,81.49
2023-02-18T02:27:06.872Z,81.29
2023-02-18T02:29:58.694Z,81.03
2023-02-18T02:32:39.116Z,81.03
2023-02-18T02:35:09.072Z,80.46
2023-02-18T02:37:39.397Z,80.75
2023-02-18T02:40:13.037Z,80.65
2023-02-18T02:42:47.907Z,80.46
2023-02-18T02:45:19.634Z,80.47
2023-02-18T02:47:51.986Z,80.94
2023-02-18T02:50:24.384Z,81.22
2023-02-18T02:52:54.187Z,80.23
2023-02-18T02:55:21.581Z,79.05
2023-02-18T02:57:50.315Z,78.84
2023-02-18T03:00:19.244Z,77.84
2023-02-18T03:03:04.661Z,77.67
2023-02-18T03:05:39.390Z,76.25
2023-02-18T03:08:26.225Z,76.06
2023-02-18T03:10:59.448Z,74.82
2023-02-18T03:13:30.234Z,73.75
2023-02-18T03:15:59.780Z,73.28
2023-02-18T03:18:31.390Z,72.72
2023-02-18T03:21:04.276Z,72.21
2023-02-18T03:23:35.951Z,71.89
2023-02-18T03:26:04.372Z,71.61
2023-02-18T03:28:32.342Z,71.08
2023-02-18T03:31:01.844Z,71.48
2023-02-18T03:33:32.046Z,71.45
2023-02-18T03:36:01.294Z,71.24
2023-02-18T03:38:30.899Z,71.05
2023-02-18T03:40:58.449Z,71.23
2023-02-18T03:43:25.731Z,71.66
2023-02-18T03:45:53.165Z,71.72
2023-02-18T03:48:20.479Z,72.04
2023-02-18T03:50:47.757Z,72.21
2023-02-18T03:53:16.462Z,72.36
2023-02-18T03:55:43.735Z,72.59
2023-02-18T03:58:10.977Z,72.88
2023-02-18T04:00:38.249Z,73.17
2023-02-18T04:03:05.553Z,73.72
2023-02-18T04:05:32.900Z,74.12
2023-02-18T04:08:00.160Z,73.75
2023-02-18T04:10:28.767Z,74.32
2023-02-18T04:12:56.066Z,74.02
2023-02-18T04:15:23.357Z,73.88
2023-02-18T04:17:50.778Z,74.14
2023-02-18T04:20:18.149Z,74.47
2023-02-18T04:22:45.476Z,74.04
2023-02-18T04:25:12.756Z,73.95
2023-02-18T04:27:41.344Z,74.19
2023-02-18T04:30:09.039Z,75.09
2023-02-18T04:32:36.312Z,75.02
2023-02-18T04:35:03.622Z,75.00
2023-02-18T04:37:30.878Z,74.95
2023-02-18T04:39:58.150Z,75.10
2023-02-18T04:42:25.414Z,74.89
2023-02-18T04:44:54.022Z,75.27
2023-02-18T04:47:21.373Z,75.37
2023-02-18T04:49:48.701Z,76.42
2023-02-18T04:52:16.204Z,76.41
2023-02-18T04:54:43.502Z,77.90
2023-02-18T04:57:11.002Z,77.76
2023-02-18T04:59:38.362Z,78.37
2023-02-18T05:02:06.956Z,78.41
2023-02-18T05:04:34.232Z,77.91
2023-02-18T05:07:01.640Z,77.95
2023-02-18T05:09:28.929Z,77.33
2023-02-18T05:11:56.169Z,76.78
2023-02-18T05:14:23.492Z,77.03
2023-02-18T05:16:50.812Z,77.20
2023-02-18T05:19:19.419Z,77.17
2023-02-18T05:21:46.721Z,76.69
2023-02-18T05:24:13.995Z,76.53
2023-02-18T05:26:41.246Z,76.99
2023-02-18T05:29:08.538Z,76.79
2023-02-18T05:31:35.937Z,77.37
2023-02-18T05:34:03.265Z,76.82
2023-02-18T05:36:31.864Z,77.29
2023-02-18T05:38:59.128Z,77.69
2023-02-18T05:41:26.495Z,78.03
2023-02-18T05:44:11.453Z,77.83
2023-02-18T05:46:38.744Z,78.59
2023-02-18T05:49:06.049Z,78.85
2023-02-18T05:51:34.641Z,78.74
2023-02-18T05:54:01.923Z,80.14
2023-02-18T05:56:29.214Z,80.71
2023-02-18T05:58:56.499Z,80.74
2023-02-18T06:01:23.795Z,81.07
2023-02-18T06:03:51.072Z,81.16
2023-02-18T06:06:18.406Z,81.52
2023-02-18T06:08:47.006Z,82.00
2023-02-18T06:11:14.265Z,82.26
2023-02-18T06:13:41.516Z,83.13
2023-02-18T06:16:09.153Z,84.08
2023-02-18T06:18:36.869Z,84.66
2023-02-18T06:21:04.786Z,85.48
2023-02-18T06:23:32.200Z,87.75
2023-02-18T06:26:00.820Z,88.75
2023-02-18T06:28:28.087Z,88.66
2023-02-18T06:30:55.374Z,89.37
2023-02-18T06:33:22.636Z,89.88
2023-02-18T06:35:56.877Z,90.46
2023-02-18T06:38:24.163Z,91.68
2023-02-18T06:40:52.010Z,92.05
2023-02-18T06:43:21.041Z,92.26
2023-02-18T06:45:48.292Z,92.98
2023-02-18T06:48:16.852Z,94.15
2023-02-18T06:50:44.514Z,94.80
2023-02-18T06:53:11.775Z,95.77
2023-02-18T06:55:39.556Z,96.90
2023-02-18T06:58:07.137Z,97.18
2023-02-18T07:00:35.770Z,97.36
2023-02-18T07:03:03.092Z,98.22
2023-02-18T07:05:30.470Z,98.96
2023-02-18T07:07:57.811Z,98.36
2023-02-18T07:10:25.418Z,99.08
2023-02-18T07:12:52.677Z,99.14
2023-02-18T07:15:24.099Z,100.00
2023-02-18T07:17:52.724Z,100.00
2023-02-18T07:20:20.778Z,100.00
2023-02-18T07:22:48.549Z,100.00
2023-02-18T07:25:16.016Z,100.00
2023-02-18T07:27:43.321Z,100.00
2023-02-18T07:30:10.885Z,100.00
2023-02-18T07:32:38.200Z,100.00
2023-02-18T07:35:07.572Z,100.00
2023-02-18T07:37:34.851Z,100.00
2023-02-18T07:40:02.130Z,100.00
2023-02-18T07:42:29.432Z,100.00
2023-02-18T07:44:56.675Z,100.00
2023-02-18T07:47:23.985Z,100.00
2023-02-18T07:49:51.267Z,100.00
2023-02-18T07:52:20.175Z,100.00
2023-02-18T07:54:47.475Z,100.00
2023-02-18T07:57:14.784Z,100.00
2023-02-18T07:59:42.204Z,100.00
2023-02-18T08:02:16.034Z,100.00
2023-02-18T08:04:43.316Z,100.00
2023-02-18T08:07:13.058Z,100.00
2023-02-18T08:09:41.713Z,100.00
2023-02-18T08:12:08.996Z,100.00
2023-02-18T08:14:36.333Z,100.00
2023-02-18T08:17:03.624Z,100.00
2023-02-18T08:19:30.907Z,100.00
2023-02-18T08:22:01.775Z,100.00
2023-02-18T08:24:29.061Z,100.00
2023-02-18T08:27:01.280Z,100.00
2023-02-18T08:29:29.339Z,100.00
2023-02-18T08:31:58.111Z,100.00
2023-02-18T08:34:25.627Z,100.00
2023-02-18T08:36:52.929Z,100.00
2023-02-18T08:39:20.246Z,100.00
2023-02-18T08:41:47.521Z,100.00
2023-02-18T08:44:16.111Z,100.00
2023-02-18T08:46:43.404Z,100.00
2023-02-18T08:49:10.731Z,100.00
2023-02-18T08:51:38.169Z,100.00
2023-02-18T08:54:05.692Z,100.00
2023-02-18T08:56:33.525Z,100.00
2023-02-18T08:59:00.807Z,100.00
2023-02-18T09:01:29.450Z,100.00
2023-02-18T09:03:57.095Z,100.00
2023-02-18T09:06:24.723Z,100.00
2023-02-18T09:08:52.325Z,100.00
2023-02-18T09:11:20.505Z,100.00
2023-02-18T09:13:48.107Z,100.00
2023-02-18T09:16:18.205Z,100.00
2023-02-18T09:18:47.569Z,100.00
2023-02-18T09:21:15.950Z,100.00
2023-02-18T09:23:43.393Z,100.00
2023-02-18T09:26:12.056Z,100.00
2023-02-18T09:28:40.032Z,100.00
2023-02-18T09:31:08.105Z,100.00
2023-02-18T09:33:36.501Z,100.00
2023-02-18T09:36:05.760Z,100.00
2023-02-18T09:38:33.113Z,100.00
2023-02-18T09:41:01.681Z,100.00
2023-02-18T09:43:31.786Z,100.00
2023-02-18T09:46:00.100Z,100.00
2023-02-18T09:48:28.734Z,100.00
2023-02-18T09:50:56.366Z,100.00
2023-02-18T09:53:25.559Z,100.00
2023-02-18T09:55:53.758Z,100.00
2023-02-18T09:58:21.876Z,100.00
2023-02-18T10:00:50.897Z,100.00
2023-02-18T10:03:19.825Z,100.00
2023-02-18T10:05:52.678Z,100.00
2023-02-18T10:08:22.217Z,100.00
2023-02-18T10:10:50.835Z,100.00
2023-02-18T10:13:19.286Z,100.00
2023-02-18T10:15:46.794Z,100.00
2023-02-18T10:18:26.902Z,100.00
2023-02-18T10:20:58.072Z,100.00
2023-02-18T10:23:25.581Z,100.00
2023-02-18T10:25:54.745Z,100.00
2023-02-18T10:28:24.472Z,100.00
2023-02-18T10:30:54.123Z,100.00
2023-02-18T10:33:27.820Z,100.00
2023-02-18T10:35:58.505Z,100.00
2023-02-18T10:38:31.374Z,100.00
2023-02-18T10:41:05.653Z,100.00
2023-02-18T10:43:38.909Z,100.00
2023-02-18T10:46:11.557Z,100.00
2023-02-18T10:48:45.130Z,100.00
2023-02-18T10:51:15.652Z,100.00
2023-02-18T10:53:44.858Z,100.00
2023-02-18T10:56:32.348Z,99.96
2023-02-18T10:59:02.145Z,99.80
2023-02-18T11:01:31.506Z,100.00
2023-02-18T11:04:05.893Z,99.68
2023-02-18T11:06:34.914Z,99.30
2023-02-18T11:09:03.014Z,98.33
2023-02-18T11:11:32.989Z,98.16
2023-02-18T11:14:01.398Z,97.02
2023-02-18T11:16:37.840Z,96.07
2023-02-18T11:19:05.257Z,95.00
2023-02-18T11:21:34.383Z,95.14
2023-02-18T11:24:08.282Z,93.91
2023-02-18T11:26:37.803Z,92.26
2023-02-18T11:29:08.245Z,91.96
2023-02-18T11:31:41.279Z,90.45
2023-02-18T11:34:15.404Z,89.27
2023-02-18T11:36:43.012Z,89.47
2023-02-18T11:39:18.244Z,88.74
2023-02-18T11:41:48.597Z,87.08
2023-02-18T11:44:20.630Z,86.13
2023-02-18T11:46:57.332Z,85.28
2023-02-18T11:49:25.912Z,84.04
2023-02-18T11:51:53.647Z,84.82
2023-02-18T11:54:24.806Z,84.43
2023-02-18T11:56:57.162Z,83.70
2023-02-18T11:59:25.133Z,83.50
2023-02-18T12:01:55.346Z,84.31
2023-02-18T12:04:25.588Z,84.22
2023-02-18T12:06:55.162Z,84.93
2023-02-18T12:09:25.941Z,84.99
2023-02-18T12:11:54.849Z,87.58
2023-02-18T12:14:24.770Z,87.89
2023-02-18T12:17:08.542Z,89.03
2023-02-18T12:19:44.571Z,88.84
2023-02-18T12:22:15.742Z,89.25
2023-02-18T12:24:50.026Z,90.71
2023-02-18T12:27:21.639Z,89.93
2023-02-18T12:29:56.309Z,90.12
2023-02-18T12:32:29.488Z,89.49
2023-02-18T12:35:01.209Z,90.43
2023-02-18T12:37:47.603Z,89.95
2023-02-18T12:40:28.483Z,88.88
2023-02-18T12:42:59.228Z,87.99
2023-02-18T12:45:39.756Z,88.06
2023-02-18T12:48:17.368Z,87.41
2023-02-18T12:50:49.380Z,86.64
2023-02-18T12:53:30.853Z,88.84
2023-02-18T12:56:08.385Z,89.27
2023-02-18T12:58:40.207Z,91.00
2023-02-18T13:01:19.447Z,90.01
2023-02-18T13:04:04.910Z,91.06
2023-02-18T13:06:43.304Z,92.33
2023-02-18T13:09:17.205Z,89.10
2023-02-18T13:11:49.329Z,89.58
2023-02-18T13:14:19.645Z,87.21
2023-02-18T13:16:52.132Z,86.93
2023-02-18T13:19:22.316Z,85.70
2023-02-18T13:21:50.593Z,84.77
2023-02-18T13:24:23.972Z,82.90
2023-02-18T13:26:53.791Z,82.66
2023-02-18T13:29:24.895Z,81.88
2023-02-18T13:32:00.490Z,80.71
2023-02-18T13:34:30.060Z,79.56
2023-02-18T13:37:06.647Z,79.44
2023-02-18T13:39:34.082Z,80.63
2023-02-18T13:42:12.499Z,81.54
2023-02-18T13:44:58.614Z,82.18
2023-02-18T13:47:40.695Z,82.61
2023-02-18T13:50:25.550Z,82.99
2023-02-18T13:52:58.837Z,85.04
2023-02-18T13:55:28.254Z,83.65
2023-02-18T13:57:59.429Z,83.99
2023-02-18T14:00:35.155Z,81.50
2023-02-18T14:03:19.756Z,81.65
2023-02-18T14:05:47.052Z,81.65
2023-02-18T14:08:15.298Z,80.81
2023-02-18T14:10:43.073Z,79.64
2023-02-18T14:13:24.666Z,78.59
2023-02-18T14:15:54.595Z,78.62
2023-02-18T14:18:28.085Z,78.23
2023-02-18T14:21:06.751Z,77.31
2023-02-18T14:23:44.506Z,76.95
2023-02-18T14:26:19.264Z,77.01
2023-02-18T14:28:51.261Z,77.63
2023-02-18T14:31:29.907Z,77.18
2023-02-18T14:34:10.815Z,77.29
2023-02-18T14:36:40.691Z,77.33
2023-02-18T14:39:12.158Z,77.46
2023-02-18T14:41:44.189Z,77.61
2023-02-18T14:44:29.478Z,77.32
2023-02-18T14:47:06.746Z,77.45
2023-02-18T14:49:40.356Z,77.26
2023-02-18T14:52:12.465Z,77.58
2023-02-18T14:54:41.111Z,76.89
2023-02-18T14:57:10.479Z,77.76
2023-02-18T14:59:40.947Z,77.98
2023-02-18T15:02:15.893Z,78.31
2023-02-18T15:04:45.908Z,79.42
2023-02-18T15:07:13.586Z,82.02
2023-02-18T15:09:46.293Z,85.12
2023-02-18T15:12:15.438Z,85.95
2023-02-18T15:14:44.059Z,87.69
2023-02-18T15:17:18.597Z,88.43
2023-02-18T15:19:50.009Z,89.32
2023-02-18T15:22:19.061Z,90.55
2023-02-18T15:24:46.826Z,90.51
2023-02-18T15:27:15.615Z,90.76
2023-02-18T15:29:43.499Z,89.65
2023-02-18T15:32:16.560Z,89.49
2023-02-18T15:34:48.940Z,86.74
2023-02-18T15:37:18.035Z,86.54
2023-02-18T15:39:49.604Z,85.16
2023-02-18T15:42:20.340Z,83.71
2023-02-18T15:44:49.080Z,79.81
2023-02-18T15:47:17.445Z,79.62
2023-02-18T15:49:47.394Z,78.72
2023-02-18T15:52:14.889Z,77.97
2023-02-18T15:54:43.624Z,78.23
2023-02-18T15:57:14.074Z,77.96
2023-02-18T15:59:44.677Z,76.75
2023-02-18T16:02:15.911Z,76.74
2023-02-18T16:04:46.278Z,76.50
2023-02-18T16:07:24.838Z,76.13
2023-02-18T16:09:58.543Z,76.32
2023-02-18T16:12:29.221Z,76.35
2023-02-18T16:14:57.494Z,76.06
2023-02-18T16:17:26.281Z,75.77
2023-02-18T16:20:04.393Z,76.14
2023-02-18T16:22:34.584Z,76.64
2023-02-18T16:25:08.331Z,76.77
2023-02-18T16:27:37.235Z,76.66
2023-02-18T16:30:08.040Z,76.48
2023-02-18T16:32:35.445Z,76.69
2023-02-18T16:35:03.532Z,76.57
2023-02-18T16:37:40.084Z,76.47
2023-02-18T16:40:28.217Z,76.16
2023-02-18T16:42:57.750Z,76.31
2023-02-18T16:45:31.553Z,76.38
2023-02-18T16:47:58.825Z,76.53
2023-02-18T16:50:28.667Z,76.08
2023-02-18T16:52:56.256Z,75.57
2023-02-18T16:55:25.495Z,75.94
2023-02-18T16:57:52.771Z,75.54
2023-02-18T17:00:22.395Z,76.43
2023-02-18T17:02:50.912Z,76.01
2023-02-18T17:05:26.354Z,75.75
2023-02-18T17:07:54.631Z,75.78
2023-02-18T17:10:22.284Z,75.55
2023-02-18T17:12:49.560Z,75.65
2023-02-18T17:15:24.666Z,75.50
2023-02-18T17:17:51.983Z,75.88
2023-02-18T17:20:19.428Z,76.44
2023-02-18T17:22:46.744Z,76.94
2023-02-18T17:25:18.365Z,77.27
2023-02-18T17:27:47.939Z,78.01
2023-02-18T17:30:15.794Z,78.70
2023-02-18T17:32:44.985Z,80.21
2023-02-18T17:35:16.254Z,81.04
2023-02-18T17:37:43.558Z,81.23
2023-02-18T17:40:14.187Z,81.26
2023-02-18T17:42:41.454Z,82.69
2023-02-18T17:45:16.697Z,84.08
2023-02-18T17:47:46.173Z,84.32
2023-02-18T17:50:13.498Z,84.27
2023-02-18T17:52:40.798Z,83.50
2023-02-18T17:55:19.216Z,83.49
2023-02-18T17:57:46.828Z,83.88
2023-02-18T18:00:15.619Z,83.35
2023-02-18T18:02:43.066Z,82.86
2023-02-18T18:05:16.969Z,81.67
2023-02-18T18:07:44.247Z,82.30
2023-02-18T18:10:11.824Z,82.32
2023-02-18T18:12:39.253Z,82.71
2023-02-18T18:15:18.928Z,81.85
2023-02-18T18:17:46.403Z,80.79
2023-02-18T18:20:13.842Z,79.55
2023-02-18T18:22:42.492Z,79.02
2023-02-18T18:25:16.886Z,78.70
2023-02-18T18:27:47.563Z,78.24
2023-02-18T18:30:15.078Z,78.33
2023-02-18T18:32:42.384Z,77.29
2023-02-18T18:35:24.325Z,77.40
2023-02-18T18:37:53.311Z,77.15
2023-02-18T18:40:21.244Z,77.95
2023-02-18T18:42:48.851Z,78.85
2023-02-18T18:45:17.841Z,80.63
2023-02-18T18:47:45.196Z,82.20
2023-02-18T18:50:12.947Z,83.47
2023-02-18T18:52:43.406Z,85.02
2023-02-18T18:55:18.974Z,87.63
2023-02-18T18:57:47.262Z,88.66
2023-02-18T19:00:15.187Z,88.85
2023-02-18T19:02:42.552Z,87.43
2023-02-18T19:05:15.808Z,86.73
2023-02-18T19:07:43.093Z,86.24
2023-02-18T19:10:10.445Z,85.10
2023-02-18T19:12:39.101Z,84.01
2023-02-18T19:15:06.611Z,84.10
2023-02-18T19:17:33.930Z,83.06
2023-02-18T19:20:01.226Z,82.52
2023-02-18T19:22:28.522Z,82.20
2023-02-18T19:24:55.814Z,82.34
2023-02-18T19:27:23.121Z,81.55
2023-02-18T19:29:54.212Z,81.27
2023-02-18T19:32:24.515Z,80.80
2023-02-18T19:34:52.160Z,80.99
2023-02-18T19:37:19.524Z,80.92
2023-02-18T19:39:46.929Z,80.70
2023-02-18T19:42:14.582Z,81.37
2023-02-18T19:44:42.007Z,81.22
2023-02-18T19:47:10.898Z,81.04
2023-02-18T19:49:38.318Z,81.97
2023-02-18T19:52:05.730Z,82.23
2023-02-18T19:54:33.414Z,82.51
2023-02-18T19:57:01.029Z,82.71
2023-02-18T19:59:30.498Z,83.09
2023-02-18T20:01:57.879Z,83.17
2023-02-18T20:04:26.640Z,83.17
2023-02-18T20:06:53.934Z,83.06
2023-02-18T20:12:12.319Z,83.94
2023-02-18T20:14:40.039Z,83.81
2023-02-18T20:17:07.665Z,84.38
2023-02-18T20:19:36.342Z,85.07
2023-02-18T20:22:03.977Z,85.00
2023-02-18T20:24:32.131Z,85.06
2023-02-18T20:27:02.513Z,85.13
2023-02-18T20:29:33.531Z,85.48
2023-02-18T20:32:01.547Z,84.96
2023-02-18T20:34:29.057Z,85.04
2023-02-18T20:36:58.015Z,84.75
2023-02-18T20:39:25.342Z,84.85
2023-02-18T20:41:52.733Z,84.50
2023-02-18T20:44:20.876Z,84.46
2023-02-18T20:46:49.469Z,84.98
2023-02-18T20:49:18.903Z,84.18
2023-02-18T20:51:46.269Z,84.11
2023-02-18T20:54:15.910Z,84.29
2023-02-18T20:56:43.722Z,84.11
2023-02-18T20:59:14.419Z,83.93
2023-02-18T21:01:41.821Z,84.13
2023-02-18T21:04:10.924Z,83.75
2023-02-18T21:06:38.250Z,84.08
2023-02-18T21:09:05.660Z,83.98
2023-02-18T21:11:37.501Z,84.16
2023-02-18T21:14:05.368Z,84.63
2023-02-18T21:16:34.512Z,84.48
2023-02-18T21:19:01.838Z,83.95
2023-02-18T21:21:29.126Z,83.99
2023-02-18T21:23:56.461Z,83.55
2023-02-18T21:26:25.181Z,83.42
2023-02-18T21:28:54.650Z,83.50
2023-02-18T21:31:23.438Z,84.00
2023-02-18T21:33:50.830Z,84.36
2023-02-18T21:36:21.750Z,84.49
2023-02-18T21:38:51.870Z,84.50
2023-02-18T21:41:19.266Z,84.46
2023-02-18T21:43:47.156Z,84.95
2023-02-18T21:46:18.072Z,86.03
2023-02-18T21:49:05.679Z,86.43
2023-02-18T21:51:52.488Z,86.35
2023-02-18T21:54:20.665Z,87.03
2023-02-18T21:56:48.527Z,87.91
2023-02-18T21:59:19.482Z,88.77
2023-02-18T22:01:48.262Z,89.68
2023-02-18T22:04:15.886Z,90.65
2023-02-18T22:06:43.364Z,90.99
2023-02-18T22:09:10.880Z,90.88
2023-02-18T22:11:38.191Z,90.42
2023-02-18T22:14:05.540Z,90.21
2023-02-18T22:16:32.859Z,90.70
2023-02-18T22:19:01.505Z,90.08
2023-02-18T22:21:28.837Z,89.33
2023-02-18T22:23:56.170Z,88.92
2023-02-18T22:26:23.509Z,87.97
2023-02-18T22:28:54.509Z,87.71
2023-02-18T22:31:22.369Z,86.86
2023-02-18T22:33:51.430Z,86.40
2023-02-18T22:36:20.823Z,85.72
2023-02-18T22:38:48.529Z,84.30
2023-02-18T22:41:16.619Z,84.60
2023-02-18T22:43:44.057Z,84.28
2023-02-18T22:46:13.076Z,83.99
2023-02-18T22:48:40.617Z,85.34
2023-02-18T22:51:09.058Z,86.64
2023-02-18T22:53:38.506Z,88.18
2023-02-18T22:56:06.835Z,89.47
2023-02-18T22:58:34.473Z,89.83
2023-02-18T23:01:01.854Z,89.96
2023-02-18T23:03:29.735Z,90.44
2023-02-18T23:06:01.862Z,90.53
2023-02-18T23:08:29.466Z,91.14
2023-02-18T23:11:04.646Z,90.40
2023-02-18T23:13:31.944Z,89.98
2023-02-18T23:16:00.139Z,90.56
2023-02-18T23:18:28.104Z,91.03
2023-02-18T23:21:18.734Z,90.57
2023-02-18T23:23:46.859Z,90.73
2023-02-18T23:26:15.690Z,90.69
2023-02-18T23:28:49.096Z,90.32
2023-02-18T23:31:17.160Z,89.45
2023-02-18T23:33:44.929Z,88.27
2023-02-18T23:36:13.013Z,88.04
2023-02-18T23:38:40.355Z,87.40
2023-02-18T23:41:08.607Z,87.26
2023-02-18T23:43:37.414Z,86.96
2023-02-18T23:46:04.787Z,86.25
2023-02-18T23:48:32.109Z,85.73
2023-02-18T23:51:00.112Z,85.46
2023-02-18T23:53:27.783Z,85.27
2023-02-18T23:56:02.737Z,85.26
2023-02-18T23:58:30.055Z,85.64
